Time;durP1;ratioP1;P1;durP2;ratioP2;P2;SDS_P1;SDS_P2;PMS_P1;PMS_P2;Temp;Humidity;BMP_temperature;BMP_pressure;BME280_temperature;BME280_humidity;BME280_pressure;Samples;Min_cycle;Max_cycle;Signal;HPM_P1;HPM_P2
2021/04/22 00:02:12;;;;;;;14.15;3.97;;;5.20;99.90;;;;;;5052285;28;20059;-83
2021/04/22 00:04:39;;;;;;;19.80;3.80;;;5.20;99.90;;;;;;5040239;28;20052;-83
2021/04/22 00:07:05;;;;;;;19.40;4.15;;;5.10;99.90;;;;;;5040251;28;20049;-83
2021/04/22 00:09:32;;;;;;;17.40;3.60;;;5.10;99.90;;;;;;5057176;28;20121;-81
2021/04/22 00:11:58;;;;;;;15.15;3.42;;;5.10;99.90;;;;;;5044593;28;20041;-83
2021/04/22 00:14:25;;;;;;;12.88;3.28;;;5.00;99.90;;;;;;5057137;28;20108;-82
2021/04/22 00:16:51;;;;;;;19.08;4.15;;;4.90;99.90;;;;;;5040220;28;20080;-83
2021/04/22 00:19:18;;;;;;;25.80;4.20;;;4.90;99.90;;;;;;5041863;28;20098;-82
2021/04/22 00:21:44;;;;;;;16.63;4.60;;;4.80;99.90;;;;;;5044981;28;20113;-83
2021/04/22 00:24:11;;;;;;;19.25;4.05;;;4.80;99.90;;;;;;5044187;28;20423;-82
2021/04/22 00:26:37;;;;;;;17.90;3.67;;;4.80;99.90;;;;;;5057991;28;20053;-83
2021/04/22 00:29:04;;;;;;;12.18;3.65;;;4.80;99.90;;;;;;5041976;28;20152;-82
2021/04/22 00:31:30;;;;;;;15.15;2.92;;;4.90;99.90;;;;;;5060137;28;20475;-83
2021/04/22 00:33:57;;;;;;;19.38;4.32;;;4.90;99.90;;;;;;5043562;28;20049;-80
2021/04/22 00:36:23;;;;;;;14.60;4.10;;;5.00;99.90;;;;;;5040382;28;20113;-82
2021/04/22 00:38:49;;;;;;;25.48;5.05;;;5.00;99.90;;;;;;5054877;28;20046;-83
2021/04/22 00:41:16;;;;;;;24.38;5.20;;;5.10;99.90;;;;;;5038008;28;20245;-82
2021/04/22 00:43:42;;;;;;;15.85;3.75;;;5.20;99.90;;;;;;5039084;28;20680;-82
2021/04/22 00:46:09;;;;;;;12.55;3.33;;;5.30;99.90;;;;;;5042803;28;20049;-83
2021/04/22 00:48:35;;;;;;;14.80;3.38;;;5.30;99.90;;;;;;5037891;28;20049;-81
2021/04/22 00:51:01;;;;;;;11.65;2.50;;;5.40;99.90;;;;;;5043499;28;20051;-82
2021/04/22 00:53:28;;;;;;;13.93;2.90;;;5.40;99.90;;;;;;5055835;28;20100;-81
2021/04/22 00:55:55;;;;;;;18.17;3.45;;;5.40;99.90;;;;;;5050025;28;20077;-80
2021/04/22 00:58:22;;;;;;;11.90;3.53;;;5.40;99.90;;;;;;5056618;28;20056;-81
2021/04/22 01:00:55;;;;;;;21.23;3.08;;;5.40;99.90;;;;;;5036677;28;20076;-81
2021/04/22 01:03:22;;;;;;;11.57;2.60;;;5.40;99.90;;;;;;5035893;28;20101;-81
2021/04/22 01:05:53;;;;;;;13.30;3.60;;;5.30;99.90;;;;;;5055822;28;20089;-81
2021/04/22 01:08:19;;;;;;;11.10;3.65;;;5.20;99.90;;;;;;5039728;28;20068;-81
2021/04/22 01:10:45;;;;;;;15.80;3.83;;;5.20;99.90;;;;;;5043350;28;20105;-81
2021/04/22 01:13:12;;;;;;;19.25;3.50;;;5.10;99.90;;;;;;5038926;28;20128;-81
2021/04/22 01:15:39;;;;;;;14.23;2.92;;;5.10;99.90;;;;;;5058057;28;20053;-82
2021/04/22 01:18:07;;;;;;;18.33;4.55;;;5.10;99.90;;;;;;5039200;28;20055;-82
2021/04/22 01:20:35;;;;;;;16.70;3.33;;;5.00;99.90;;;;;;5036355;28;20045;-82
2021/04/22 01:23:03;;;;;;;15.63;3.70;;;5.00;99.90;;;;;;5039061;28;20041;-82
2021/04/22 01:25:36;;;;;;;16.48;3.35;;;4.90;99.90;;;;;;5042056;28;20120;-81
2021/04/22 01:28:04;;;;;;;24.67;2.92;;;4.90;99.90;;;;;;5057031;28;20408;-81
2021/04/22 01:30:41;;;;;;;18.33;4.18;;;4.80;99.90;;;;;;5059636;28;20492;-81
2021/04/22 01:33:09;;;;;;;12.82;3.08;;;4.80;99.90;;;;;;5039522;28;20128;-81
2021/04/22 01:35:40;;;;;;;14.88;2.50;;;4.70;99.90;;;;;;5038493;28;20057;-81
2021/04/22 01:38:08;;;;;;;12.55;2.80;;;4.70;99.90;;;;;;5038025;28;20121;-81
2021/04/22 01:40:35;;;;;;;20.00;3.08;;;4.70;99.90;;;;;;5042243;28;20057;-81
2021/04/22 01:43:03;;;;;;;10.85;3.08;;;4.60;99.90;;;;;;5057539;28;20045;-81
2021/04/22 01:45:29;;;;;;;11.38;2.03;;;4.60;99.90;;;;;;5054005;28;20049;-82
2021/04/22 01:47:58;;;;;;;7.22;2.45;;;4.60;99.90;;;;;;5032315;28;20366;-81
2021/04/22 01:50:27;;;;;;;14.48;2.88;;;4.60;99.90;;;;;;5053273;28;20049;-82
2021/04/22 01:52:54;;;;;;;20.75;2.92;;;4.60;99.90;;;;;;5040788;28;20117;-81
2021/04/22 01:55:31;;;;;;;11.63;2.97;;;4.60;99.90;;;;;;5058791;28;20092;-82
2021/04/22 01:57:58;;;;;;;16.73;3.00;;;4.70;99.90;;;;;;5041559;28;20071;-82
2021/04/22 02:00:34;;;;;;;16.05;2.55;;;4.70;99.90;;;;;;5041954;28;20136;-81
2021/04/22 02:03:01;;;;;;;13.82;1.90;;;4.80;99.90;;;;;;5041579;28;20079;-80
2021/04/22 02:05:27;;;;;;;5.80;1.92;;;4.90;99.90;;;;;;5040458;28;20041;-82
2021/04/22 02:07:54;;;;;;;21.20;4.20;;;5.00;99.90;;;;;;5040255;28;20364;-81
2021/04/22 02:10:21;;;;;;;13.85;2.20;;;5.10;99.90;;;;;;5055655;28;20047;-82
2021/04/22 02:12:49;;;;;;;8.88;2.17;;;5.10;99.90;;;;;;5038745;28;20044;-81
2021/04/22 02:15:24;;;;;;;12.93;3.05;;;5.20;99.90;;;;;;5054980;28;20044;-81
2021/04/22 02:17:51;;;;;;;14.30;2.00;;;5.30;99.90;;;;;;5039936;28;20061;-81
2021/04/22 02:20:18;;;;;;;13.38;1.77;;;5.30;99.90;;;;;;5038777;28;25204;-82
2021/04/22 02:22:46;;;;;;;9.80;2.13;;;5.40;99.90;;;;;;5040514;28;20068;-82
2021/04/22 02:25:14;;;;;;;10.75;2.55;;;5.40;99.90;;;;;;5040673;28;20072;-80
2021/04/22 02:27:41;;;;;;;9.30;2.30;;;5.50;99.90;;;;;;5038475;28;20088;-82
2021/04/22 02:30:17;;;;;;;13.15;2.42;;;5.50;99.90;;;;;;5037166;28;20551;-82
2021/04/22 02:32:43;;;;;;;8.90;1.90;;;5.60;99.90;;;;;;5041285;28;20045;-82
2021/04/22 02:35:13;;;;;;;14.23;2.38;;;5.60;99.90;;;;;;5056878;28;20052;-82
2021/04/22 02:37:40;;;;;;;14.52;2.55;;;5.70;99.90;;;;;;5052979;28;20095;-82
2021/04/22 02:40:12;;;;;;;18.50;2.65;;;5.70;99.90;;;;;;5039064;28;20123;-82
2021/04/22 02:42:39;;;;;;;9.77;2.05;;;5.80;99.90;;;;;;5048697;28;20057;-82
2021/04/22 02:45:18;;;;;;;7.90;2.08;;;5.80;99.90;;;;;;5041171;28;20076;-82
2021/04/22 02:47:44;;;;;;;12.73;2.70;;;5.80;99.90;;;;;;5051814;28;20113;-82
2021/04/22 02:50:16;;;;;;;15.05;2.47;;;5.90;99.90;;;;;;5040366;28;20059;-82
2021/04/22 02:52:42;;;;;;;15.98;2.55;;;5.90;99.90;;;;;;5031852;28;20061;-82
2021/04/22 02:55:09;;;;;;;16.42;2.28;;;6.00;99.90;;;;;;5041816;28;20057;-81
2021/04/22 02:57:36;;;;;;;14.32;2.25;;;6.00;99.90;;;;;;5037750;28;20073;-81
2021/04/22 03:00:06;;;;;;;16.00;2.20;;;6.00;99.90;;;;;;5038370;28;20046;-82
2021/04/22 03:02:33;;;;;;;7.50;1.85;;;6.00;99.90;;;;;;5031352;28;20088;-81
2021/04/22 03:05:00;;;;;;;9.35;2.08;;;6.00;99.90;;;;;;5043185;28;20049;-81
2021/04/22 03:07:26;;;;;;;15.20;1.90;;;6.00;99.90;;;;;;5041919;28;20061;-82
2021/04/22 03:09:52;;;;;;;10.13;2.08;;;6.00;99.90;;;;;;5036988;28;20053;-82
2021/04/22 03:12:19;;;;;;;15.93;1.75;;;6.00;99.90;;;;;;5060172;28;20076;-82
2021/04/22 03:14:45;;;;;;;7.75;1.77;;;6.00;99.90;;;;;;5055090;28;20072;-82
2021/04/22 03:17:12;;;;;;;13.30;2.42;;;6.00;99.90;;;;;;5040581;28;20099;-83
2021/04/22 03:19:38;;;;;;;8.32;2.22;;;6.00;99.90;;;;;;5049111;28;20059;-82
2021/04/22 03:22:04;;;;;;;10.70;1.77;;;6.00;99.90;;;;;;5041044;28;20042;-82
2021/04/22 03:24:31;;;;;;;10.80;1.85;;;6.00;99.90;;;;;;5039782;28;20046;-82
2021/04/22 03:26:58;;;;;;;14.15;2.70;;;6.00;99.90;;;;;;5058057;28;20049;-82
2021/04/22 03:29:24;;;;;;;7.15;1.60;;;6.00;99.90;;;;;;5039795;28;20052;-82
2021/04/22 03:31:50;;;;;;;9.07;1.85;;;6.10;99.90;;;;;;5041307;28;20665;-82
2021/04/22 03:34:17;;;;;;;18.02;2.65;;;6.10;99.90;;;;;;5039018;28;20073;-82
2021/04/22 03:36:43;;;;;;;4.15;1.58;;;6.10;99.90;;;;;;5049110;28;20053;-82
2021/04/22 03:39:09;;;;;;;18.05;2.10;;;6.10;99.90;;;;;;5056038;28;20042;-82
2021/04/22 03:41:36;;;;;;;11.07;2.13;;;6.20;99.90;;;;;;5062337;28;20113;-83
2021/04/22 03:44:03;;;;;;;13.73;1.77;;;6.20;99.90;;;;;;5041547;28;20059;-82
2021/04/22 03:46:29;;;;;;;8.75;2.22;;;6.20;99.90;;;;;;5036297;28;20064;-82
2021/04/22 03:48:56;;;;;;;4.97;2.28;;;6.20;99.90;;;;;;5061053;28;20049;-82
2021/04/22 03:51:22;;;;;;;11.80;1.90;;;6.20;99.90;;;;;;5040631;28;20072;-82
2021/04/22 03:53:48;;;;;;;18.10;1.85;;;6.20;99.90;;;;;;5060203;28;20045;-82
2021/04/22 03:56:14;;;;;;;11.25;2.15;;;6.20;99.90;;;;;;5043810;28;20606;-82
2021/04/22 03:58:41;;;;;;;7.00;1.58;;;6.20;99.90;;;;;;5040688;28;20136;-81
2021/04/22 04:01:08;;;;;;;14.65;2.15;;;6.20;99.90;;;;;;5044635;28;20049;-82
2021/04/22 04:03:34;;;;;;;6.38;1.52;;;6.30;99.90;;;;;;5061805;28;20117;-82
2021/04/22 04:06:00;;;;;;;13.63;2.08;;;6.30;99.90;;;;;;5046360;28;20064;-82
2021/04/22 04:08:26;;;;;;;16.77;2.60;;;6.30;99.90;;;;;;5029172;28;20117;-82
2021/04/22 04:10:53;;;;;;;13.23;2.38;;;6.30;99.90;;;;;;5048009;28;20438;-82
2021/04/22 04:13:19;;;;;;;15.73;1.77;;;6.30;99.90;;;;;;5059973;28;20055;-82
2021/04/22 04:15:46;;;;;;;11.95;2.47;;;6.30;99.90;;;;;;5044606;28;20056;-82
2021/04/22 04:18:13;;;;;;;16.55;2.20;;;6.30;99.90;;;;;;5039038;28;20067;-82
2021/04/22 04:20:40;;;;;;;16.38;1.80;;;6.40;99.90;;;;;;5058509;28;20049;-82
2021/04/22 04:23:07;;;;;;;16.45;2.55;;;6.40;99.90;;;;;;5047985;28;20046;-82
2021/04/22 04:25:33;;;;;;;17.85;2.65;;;6.40;99.90;;;;;;5059776;28;20065;-82
2021/04/22 04:27:59;;;;;;;8.15;1.80;;;6.40;99.90;;;;;;5042331;28;20041;-82
2021/04/22 04:30:26;;;;;;;17.45;2.90;;;6.40;99.90;;;;;;5046329;28;20555;-82
2021/04/22 04:32:52;;;;;;;9.55;1.70;;;6.40;99.90;;;;;;5034607;28;20053;-82
2021/04/22 04:35:20;;;;;;;7.07;1.42;;;6.40;99.90;;;;;;5047569;28;20104;-82
2021/04/22 04:37:46;;;;;;;10.27;2.15;;;6.40;99.90;;;;;;5064470;28;20053;-83
2021/04/22 04:40:15;;;;;;;18.95;2.60;;;6.40;99.90;;;;;;5038653;28;20660;-82
2021/04/22 04:42:42;;;;;;;6.07;1.70;;;6.50;99.90;;;;;;5046378;28;20095;-81
2021/04/22 04:45:11;;;;;;;14.07;2.58;;;6.50;99.90;;;;;;5043194;28;20049;-82
2021/04/22 04:47:39;;;;;;;11.85;2.20;;;6.50;99.90;;;;;;5027823;28;20117;-83
2021/04/22 04:50:07;;;;;;;10.73;2.03;;;6.50;99.90;;;;;;5061772;28;20083;-81
2021/04/22 04:52:33;;;;;;;5.97;1.80;;;6.50;99.90;;;;;;5035506;28;20142;-83
2021/04/22 04:55:01;;;;;;;16.63;2.00;;;6.60;99.90;;;;;;5038192;28;20538;-81
2021/04/22 04:57:27;;;;;;;13.25;1.90;;;6.50;99.90;;;;;;5053765;28;20061;-83
2021/04/22 04:59:53;;;;;;;14.98;2.10;;;6.60;99.90;;;;;;5054834;28;20072;-82
2021/04/22 05:02:19;;;;;;;11.43;1.90;;;6.60;99.90;;;;;;5032455;28;20073;-82
2021/04/22 05:04:48;;;;;;;5.05;1.30;;;6.60;99.90;;;;;;5041203;28;20519;-82
2021/04/22 05:07:17;;;;;;;13.52;1.60;;;6.60;99.90;;;;;;5052507;28;20046;-82
2021/04/22 05:09:43;;;;;;;11.23;2.13;;;6.60;99.90;;;;;;5055462;28;20489;-82
2021/04/22 05:12:10;;;;;;;7.90;2.10;;;6.60;99.90;;;;;;5033143;28;20045;-82
2021/04/22 05:14:36;;;;;;;11.13;1.63;;;6.70;99.90;;;;;;5035314;28;20080;-82
2021/04/22 05:17:03;;;;;;;9.93;2.45;;;6.70;99.90;;;;;;5034383;28;20073;-82
2021/04/22 05:19:36;;;;;;;12.95;2.25;;;6.70;99.90;;;;;;5038427;28;20053;-82
2021/04/22 05:22:02;;;;;;;8.38;2.47;;;6.70;99.90;;;;;;5060554;28;20529;-82
2021/04/22 05:24:29;;;;;;;15.98;2.33;;;6.70;99.90;;;;;;5063306;28;20047;-81
2021/04/22 05:26:55;;;;;;;12.90;2.25;;;6.70;99.90;;;;;;5058450;28;20079;-82
2021/04/22 05:29:21;;;;;;;6.28;1.90;;;6.80;99.90;;;;;;5059348;28;20240;-82
2021/04/22 05:31:48;;;;;;;10.38;1.90;;;6.80;99.90;;;;;;5038302;28;20064;-82
2021/04/22 05:34:14;;;;;;;7.45;1.40;;;6.90;99.90;;;;;;5062481;28;20045;-81
2021/04/22 05:36:43;;;;;;;13.65;2.08;;;6.90;99.90;;;;;;5046591;28;20132;-82
2021/04/22 05:39:09;;;;;;;11.02;2.38;;;7.00;99.90;;;;;;5055035;28;20048;-81
2021/04/22 05:41:35;;;;;;;7.75;2.20;;;7.10;99.90;;;;;;5039190;28;20065;-82
2021/04/22 05:44:02;;;;;;;7.40;2.00;;;7.10;99.90;;;;;;5042500;28;20068;-82
2021/04/22 05:46:30;;;;;;;8.40;2.40;;;7.20;99.90;;;;;;5038244;28;20477;-82
2021/04/22 05:49:05;;;;;;;8.75;1.77;;;7.20;99.90;;;;;;5046753;28;20052;-82
2021/04/22 05:51:32;;;;;;;7.05;1.65;;;7.30;99.90;;;;;;5024384;28;20061;-81
2021/04/22 05:53:58;;;;;;;12.52;2.13;;;7.40;98.50;;;;;;5054741;28;20045;-82
2021/04/22 05:56:25;;;;;;;13.35;2.00;;;7.40;98.90;;;;;;5057004;28;20065;-81
2021/04/22 05:58:54;;;;;;;12.90;2.25;;;7.50;99.80;;;;;;5038776;28;20068;-82
2021/04/22 06:01:20;;;;;;;7.15;1.92;;;7.60;99.30;;;;;;5037214;28;20110;-80
2021/04/22 06:03:46;;;;;;;12.15;2.15;;;7.60;98.30;;;;;;5036960;28;20069;-80
2021/04/22 06:06:12;;;;;;;9.65;2.15;;;7.60;98.30;;;;;;5054081;28;20491;-81
2021/04/22 06:08:39;;;;;;;21.20;2.63;;;7.70;98.00;;;;;;5033693;28;20477;-80
2021/04/22 06:11:05;;;;;;;9.13;2.30;;;7.70;97.20;;;;;;5038247;28;20053;-81
2021/04/22 06:13:32;;;;;;;9.30;2.03;;;7.70;97.20;;;;;;5037164;28;20072;-80
2021/04/22 06:15:58;;;;;;;11.95;2.10;;;7.80;97.30;;;;;;5037656;28;20053;-81
2021/04/22 06:18:25;;;;;;;10.25;2.83;;;7.80;97.20;;;;;;5033553;28;20146;-82
2021/04/22 06:20:51;;;;;;;17.50;3.42;;;7.90;97.70;;;;;;5011228;28;20104;-81
2021/04/22 06:23:25;;;;;;;12.95;2.58;;;7.90;97.80;;;;;;5013554;28;20064;-81
2021/04/22 06:25:54;;;;;;;6.82;1.52;;;8.10;97.50;;;;;;5044543;28;20052;-80
2021/04/22 06:28:21;;;;;;;20.55;2.95;;;8.20;97.20;;;;;;5026958;28;20084;-80
2021/04/22 06:30:47;;;;;;;6.03;2.75;;;8.20;96.70;;;;;;5052477;28;20436;-80
2021/04/22 06:33:14;;;;;;;8.18;2.17;;;8.20;96.70;;;;;;5001522;28;20307;-81
2021/04/22 06:35:40;;;;;;;13.00;2.20;;;8.30;96.40;;;;;;5045088;28;20052;-81
2021/04/22 06:38:07;;;;;;;11.95;2.28;;;8.30;96.30;;;;;;5056874;28;20069;-80
2021/04/22 06:40:33;;;;;;;10.60;2.90;;;8.40;95.50;;;;;;5040913;28;20049;-81
2021/04/22 06:43:12;;;;;;;7.43;1.95;;;8.50;95.40;;;;;;5055885;28;20416;-79
2021/04/22 06:45:41;;;;;;;;;;;8.70;94.80;;;;;;5037255;28;20154;-79
2021/04/22 06:48:12;;;;;;;11.20;1.63;;;8.80;94.40;;;;;;5059085;28;20056;-82
2021/04/22 06:50:40;;;;;;;11.32;2.80;;;8.90;94.80;;;;;;5036131;28;20110;-81
2021/04/22 06:53:06;;;;;;;14.57;2.10;;;9.10;94.80;;;;;;5045097;28;20056;-82
2021/04/22 06:55:35;;;;;;;5.68;1.42;;;9.30;94.60;;;;;;5044787;28;20056;-81
2021/04/22 06:58:07;;;;;;;13.90;2.20;;;9.50;94.60;;;;;;5007157;28;20114;-82
2021/04/22 07:00:39;;;;;;;9.85;1.85;;;9.70;92.40;;;;;;5039981;28;20068;-81
2021/04/22 07:03:06;;;;;;;10.57;2.00;;;9.90;91.60;;;;;;5059736;28;20064;-80
2021/04/22 07:05:34;;;;;;;12.73;2.40;;;10.00;90.10;;;;;;5009418;28;20057;-81
2021/04/22 07:08:00;;;;;;;15.75;2.40;;;10.00;87.40;;;;;;5043450;28;20053;-81
2021/04/22 07:10:36;;;;;;;10.60;3.38;;;9.90;88.60;;;;;;5026355;28;20057;-82
2021/04/22 07:13:06;;;;;;;13.35;2.28;;;9.80;89.10;;;;;;5016299;28;20050;-81
2021/04/22 07:15:32;;;;;;;11.52;2.65;;;9.90;90.00;;;;;;4987901;28;20394;-80
2021/04/22 07:18:02;;;;;;;13.18;2.85;;;9.90;90.50;;;;;;5007177;28;20045;-81
2021/04/22 07:20:31;;;;;;;7.97;2.28;;;10.00;88.90;;;;;;5053424;28;20057;-81
2021/04/22 07:22:59;;;;;;;10.35;1.88;;;10.00;90.30;;;;;;5060770;28;20069;-81
2021/04/22 07:25:30;;;;;;;4.28;1.63;;;10.00;90.30;;;;;;5040878;28;20050;-80
2021/04/22 07:28:09;;;;;;;7.20;1.75;;;10.10;90.80;;;;;;5002981;28;20091;-81
2021/04/22 07:30:37;;;;;;;9.82;1.80;;;10.10;90.00;;;;;;5033393;28;20071;-81
2021/04/22 07:33:07;;;;;;;25.38;5.13;;;10.10;87.20;;;;;;5051225;28;20124;-81
2021/04/22 07:35:36;;;;;;;10.13;2.00;;;10.00;90.10;;;;;;5046500;28;20143;-80
2021/04/22 07:38:04;;;;;;;19.02;2.28;;;10.20;90.40;;;;;;5056626;28;20117;-81
2021/04/22 07:40:33;;;;;;;11.77;2.33;;;10.40;88.90;;;;;;5042579;28;20037;-81
2021/04/22 07:43:00;;;;;;;12.70;2.40;;;10.60;88.00;;;;;;5039415;28;20045;-81
2021/04/22 07:45:33;;;;;;;10.18;1.85;;;10.60;85.70;;;;;;5034533;28;20055;-81
2021/04/22 07:48:08;;;;;;;11.57;2.00;;;10.60;86.30;;;;;;5030562;28;20075;-80
2021/04/22 07:50:36;;;;;;;9.60;1.88;;;10.60;84.40;;;;;;5042293;28;20111;-80
2021/04/22 07:53:06;;;;;;;9.07;1.30;;;10.60;81.90;;;;;;5057982;28;20073;-80
2021/04/22 07:55:44;;;;;;;8.05;2.20;;;10.70;80.40;;;;;;5040355;28;20049;-80
2021/04/22 07:58:13;;;;;;;7.82;2.00;;;10.60;78.50;;;;;;5037337;28;20064;-80
2021/04/22 08:00:41;;;;;;;16.85;2.22;;;10.60;79.20;;;;;;5011270;28;20662;-79
2021/04/22 08:03:07;;;;;;;10.75;1.90;;;10.50;79.20;;;;;;5053644;28;20097;-80
2021/04/22 08:05:37;;;;;;;4.85;2.08;;;10.40;78.50;;;;;;5046208;28;20068;-79
2021/04/22 08:08:07;;;;;;;7.00;1.73;;;10.40;77.80;;;;;;5035025;28;20056;-80
2021/04/22 08:10:36;;;;;;;7.32;1.88;;;10.30;78.00;;;;;;5052007;28;20045;-80
2021/04/22 08:13:03;;;;;;;8.95;1.88;;;10.20;78.80;;;;;;5041583;28;20049;-79
2021/04/22 08:15:31;;;;;;;7.85;1.77;;;10.20;79.30;;;;;;5058201;28;20102;-80
2021/04/22 08:17:58;;;;;;;11.70;2.30;;;10.30;78.70;;;;;;5055904;28;20075;-79
2021/04/22 08:20:25;;;;;;;8.70;2.55;;;10.30;79.20;;;;;;5029800;28;20045;-80
2021/04/22 08:22:55;;;;;;;10.48;2.55;;;10.30;79.30;;;;;;5040512;28;20042;-80
2021/04/22 08:25:39;;;;;;;7.97;2.88;;;10.30;77.00;;;;;;5057077;28;20072;-79
2021/04/22 08:28:10;;;;;;;6.63;2.33;;;10.40;79.20;;;;;;5035911;28;20040;-79
2021/04/22 08:30:42;;;;;;;10.55;2.00;;;10.70;80.20;;;;;;5054036;28;20067;-81
2021/04/22 08:33:14;;;;;;;9.88;1.90;;;11.00;77.90;;;;;;5055099;28;20477;-79
2021/04/22 08:35:41;;;;;;;12.13;2.35;;;11.40;76.50;;;;;;5029700;28;20748;-79
2021/04/22 08:38:07;;;;;;;8.60;2.15;;;11.50;72.90;;;;;;5052830;28;20457;-78
2021/04/22 08:40:34;;;;;;;7.28;2.13;;;11.50;74.50;;;;;;5037235;28;20049;-79
2021/04/22 08:43:00;;;;;;;11.90;2.22;;;11.50;74.30;;;;;;5028317;28;20172;-79
2021/04/22 08:45:26;;;;;;;5.47;1.55;;;11.60;72.50;;;;;;5015910;28;20568;-77
2021/04/22 08:47:55;;;;;;;5.07;1.35;;;11.60;71.20;;;;;;5033358;28;20057;-77
2021/04/22 08:50:25;;;;;;;11.70;2.20;;;11.80;70.70;;;;;;5034726;28;20048;-79
2021/04/22 08:52:54;;;;;;;4.00;1.40;;;12.00;70.10;;;;;;5042987;28;20061;-78
2021/04/22 08:55:25;;;;;;;5.50;1.65;;;12.10;69.90;;;;;;5037512;28;20057;-79
2021/04/22 08:57:52;;;;;;;8.00;1.77;;;12.30;71.10;;;;;;5035481;28;20056;-80
2021/04/22 09:00:24;;;;;;;12.90;1.90;;;12.40;69.50;;;;;;5042579;28;20143;-79
2021/04/22 09:02:51;;;;;;;15.15;2.83;;;12.40;68.20;;;;;;5048233;28;20127;-79
2021/04/22 09:05:19;;;;;;;5.07;1.65;;;12.40;68.60;;;;;;5032808;28;20547;-79
2021/04/22 09:07:46;;;;;;;11.40;2.28;;;12.40;67.60;;;;;;5050921;28;20053;-78
2021/04/22 09:10:16;;;;;;;4.63;1.70;;;12.60;69.10;;;;;;4996316;28;20059;-80
2021/04/22 09:12:53;;;;;;;6.32;1.63;;;12.70;66.50;;;;;;5022626;28;20080;-78
2021/04/22 09:15:20;;;;;;;7.30;1.90;;;12.70;66.20;;;;;;5033423;28;20482;-78
2021/04/22 09:17:56;;;;;;;7.63;1.85;;;12.70;68.10;;;;;;5044314;28;20230;-80
2021/04/22 09:20:33;;;;;;;10.27;2.08;;;12.80;67.10;;;;;;5036414;28;20052;-79
2021/04/22 09:23:00;;;;;;;5.88;2.00;;;12.90;67.30;;;;;;5035017;28;20137;-79
2021/04/22 09:25:28;;;;;;;5.82;1.90;;;13.10;67.30;;;;;;5031150;28;20129;-79
2021/04/22 09:28:01;;;;;;;11.90;2.28;;;13.40;67.80;;;;;;5035557;28;20060;-79
2021/04/22 09:30:34;;;;;;;10.87;3.40;;;13.70;65.80;;;;;;5028382;28;20762;-79
2021/04/22 09:33:00;;;;;;;5.40;1.57;;;13.90;66.40;;;;;;5050699;28;20567;-79
2021/04/22 09:35:27;;;;;;;9.55;2.63;;;13.90;65.50;;;;;;5023962;28;20315;-78
2021/04/22 09:37:54;;;;;;;10.75;2.22;;;13.90;64.60;;;;;;5036083;28;20136;-79
2021/04/22 09:40:30;;;;;;;6.50;1.90;;;13.90;64.60;;;;;;5040709;28;20060;-77
2021/04/22 09:42:58;;;;;;;4.63;2.20;;;13.80;64.80;;;;;;5030820;28;20167;-78
2021/04/22 09:45:29;;;;;;;9.02;1.90;;;13.70;66.50;;;;;;5044269;28;20479;-78
2021/04/22 09:48:19;;;;;;;12.20;2.03;;;13.80;66.10;;;;;;5042486;28;20068;-78
2021/04/22 09:50:47;;;;;;;9.93;1.92;;;14.00;67.20;;;;;;5049094;28;20136;-79
2021/04/22 09:53:17;;;;;;;8.75;1.55;;;14.10;66.80;;;;;;5050154;28;20085;-79
2021/04/22 09:55:45;;;;;;;6.78;2.15;;;14.20;68.60;;;;;;5037095;28;20049;-79
2021/04/22 09:58:11;;;;;;;3.58;1.45;;;14.30;65.30;;;;;;5027917;28;20544;-80
2021/04/22 10:00:38;;;;;;;10.13;2.40;;;14.30;63.50;;;;;;5038032;28;20083;-80
2021/04/22 10:03:12;;;;;;;7.35;2.25;;;14.20;62.10;;;;;;5051305;28;21615;-80
2021/04/22 10:05:40;;;;;;;6.35;1.55;;;14.10;61.30;;;;;;5050878;28;20160;-79
2021/04/22 10:08:12;;;;;;;6.53;2.00;;;13.90;62.00;;;;;;5034181;28;20060;-79
2021/04/22 10:10:59;;;;;;;7.38;1.48;;;13.70;63.20;;;;;;5034882;28;20103;-79
2021/04/22 10:13:26;;;;;;;10.55;1.98;;;13.50;65.10;;;;;;5048521;28;20818;-79
2021/04/22 10:15:55;;;;;;;7.55;2.35;;;13.40;66.90;;;;;;5037088;28;21067;-79
2021/04/22 10:18:32;;;;;;;6.75;2.17;;;13.50;67.90;;;;;;5046965;28;20113;-79
2021/04/22 10:20:59;;;;;;;9.68;2.03;;;13.70;69.10;;;;;;5036091;28;20136;-80
2021/04/22 10:23:29;;;;;;;9.50;1.75;;;13.90;68.70;;;;;;5053865;28;20076;-79
2021/04/22 10:25:56;;;;;;;8.90;1.63;;;14.10;67.40;;;;;;5053233;28;20108;-79
2021/04/22 10:28:23;;;;;;;10.70;1.95;;;14.20;65.10;;;;;;5034354;28;20165;-78
2021/04/22 10:30:52;;;;;;;10.27;2.47;;;14.30;67.10;;;;;;5035328;28;20049;-79
2021/04/22 10:33:19;;;;;;;5.63;1.63;;;14.40;66.30;;;;;;5053378;28;20053;-79
2021/04/22 10:35:47;;;;;;;9.90;1.70;;;14.40;66.40;;;;;;5049171;28;20045;-79
2021/04/22 10:38:14;;;;;;;9.05;2.35;;;14.50;66.90;;;;;;5038515;28;20139;-80
2021/04/22 10:40:47;;;;;;;5.18;1.92;;;14.60;66.80;;;;;;5033781;28;20057;-79
2021/04/22 10:43:28;;;;;;;6.30;2.08;;;14.80;66.20;;;;;;5051485;28;20105;-80
2021/04/22 10:45:56;;;;;;;5.68;1.60;;;15.00;65.80;;;;;;5030949;28;20497;-79
2021/04/22 10:48:23;;;;;;;9.75;1.90;;;15.10;63.10;;;;;;5045787;28;21092;-79
2021/04/22 10:50:55;;;;;;;8.15;1.75;;;15.20;64.10;;;;;;5032652;28;20059;-79
2021/04/22 10:53:23;;;;;;;6.90;1.55;;;15.20;62.70;;;;;;5042572;28;20057;-78
2021/04/22 10:55:53;;;;;;;8.07;1.67;;;15.20;65.20;;;;;;5043667;28;20496;-79
2021/04/22 10:58:28;;;;;;;7.75;1.70;;;15.60;62.90;;;;;;5035283;28;20076;-77
2021/04/22 11:00:59;;;;;;;9.68;1.60;;;16.10;60.80;;;;;;5029969;28;20492;-79
2021/04/22 11:03:38;;;;;;;12.32;1.95;;;16.20;59.60;;;;;;5024458;28;20053;-78
2021/04/22 11:06:13;;;;;;;8.38;2.28;;;16.10;60.00;;;;;;5034397;28;20083;-78
2021/04/22 11:08:46;;;;;;;6.80;1.60;;;15.90;61.20;;;;;;5016234;28;20061;-78
2021/04/22 11:11:17;;;;;;;7.90;1.85;;;15.70;61.30;;;;;;5028528;28;20046;-78
2021/04/22 11:13:43;;;;;;;14.13;2.30;;;15.50;62.10;;;;;;5047392;28;20049;-79
2021/04/22 11:16:10;;;;;;;9.73;2.60;;;15.40;64.10;;;;;;5025068;28;20065;-78
2021/04/22 11:18:39;;;;;;;6.72;2.05;;;15.40;64.30;;;;;;5037672;28;20128;-79
2021/04/22 11:21:20;;;;;;;7.13;1.65;;;15.60;64.00;;;;;;5044718;28;20053;-79
2021/04/22 11:23:49;;;;;;;10.73;2.42;;;15.70;64.20;;;;;;5033588;28;20045;-78
2021/04/22 11:26:21;;;;;;;9.10;3.08;;;15.70;64.30;;;;;;5031999;28;20226;-78
2021/04/22 11:28:49;;;;;;;8.45;2.00;;;15.80;63.00;;;;;;5023352;28;20388;-77
2021/04/22 11:31:19;;;;;;;11.30;1.85;;;16.00;63.30;;;;;;5041759;28;20059;-78
2021/04/22 11:33:50;;;;;;;9.52;2.00;;;16.10;61.80;;;;;;5029807;28;20126;-78
2021/04/22 11:36:22;;;;;;;8.30;1.63;;;16.00;61.70;;;;;;5029990;28;20050;-79
2021/04/22 11:38:55;;;;;;;13.48;2.38;;;16.10;62.30;;;;;;5031549;28;20224;-78
2021/04/22 11:41:25;;;;;;;8.32;2.08;;;16.20;61.60;;;;;;5033728;28;20049;-81
2021/04/22 11:44:12;;;;;;;6.43;1.63;;;16.30;59.40;;;;;;5053102;28;20088;-80
2021/04/22 11:46:47;;;;;;;5.22;2.03;;;16.30;59.10;;;;;;5027548;28;20473;-80
2021/04/22 11:49:28;;;;;;;10.35;2.35;;;16.10;59.50;;;;;;5031239;28;20485;-80
2021/04/22 11:51:56;;;;;;;4.20;1.67;;;16.00;58.30;;;;;;5017953;28;20042;-79
2021/04/22 11:54:32;;;;;;;6.43;2.10;;;15.90;58.30;;;;;;5028564;28;20042;-80
2021/04/22 11:57:04;;;;;;;4.50;1.67;;;15.90;59.90;;;;;;5028670;28;20045;-80
2021/04/22 11:59:35;;;;;;;11.02;1.67;;;16.00;58.60;;;;;;5045090;28;20094;-81
2021/04/22 12:02:10;;;;;;;9.07;1.60;;;16.00;57.80;;;;;;5049189;28;20105;-83
2021/04/22 12:04:46;;;;;;;8.95;1.70;;;16.00;58.80;;;;;;5026222;28;20057;-80
2021/04/22 12:07:15;;;;;;;7.50;1.45;;;16.20;57.40;;;;;;5008708;28;20109;-79
2021/04/22 12:09:43;;;;;;;4.22;1.50;;;16.40;56.50;;;;;;5028783;28;20060;-79
2021/04/22 12:12:16;;;;;;;11.20;1.40;;;16.40;58.20;;;;;;5040740;28;20053;-80
2021/04/22 12:14:44;;;;;;;8.60;1.52;;;16.40;58.10;;;;;;5057366;28;20064;-83
2021/04/22 12:17:22;;;;;;;10.10;1.45;;;16.40;57.00;;;;;;5032788;28;20069;-79
2021/04/22 12:19:51;;;;;;;6.30;1.60;;;16.20;58.90;;;;;;5053018;28;20152;-79
2021/04/22 12:22:48;;;;;;;6.65;1.95;;;16.30;58.20;;;;;;5048196;28;20109;-79
2021/04/22 12:25:21;;;;;;;6.68;1.52;;;17.00;57.30;;;;;;5029384;28;20045;-80
2021/04/22 12:27:49;;;;;;;6.35;1.48;;;17.40;55.90;;;;;;5039109;28;20049;-80
2021/04/22 12:30:22;;;;;;;12.70;2.25;;;17.70;55.90;;;;;;5041112;28;20073;-80
2021/04/22 12:33:06;;;;;;;5.07;1.05;;;18.00;54.10;;;;;;5027677;28;20052;-81
2021/04/22 12:35:33;;;;;;;8.82;2.08;;;18.00;54.80;;;;;;5031315;28;20053;-80
2021/04/22 12:38:25;;;;;;;6.38;1.42;;;18.70;53.00;;;;;;5022018;28;20045;-81
2021/04/22 12:41:07;;;;;;;7.38;1.45;;;19.30;51.30;;;;;;5033333;28;20048;-81
2021/04/22 12:43:35;;;;;;;6.10;1.15;;;19.50;50.60;;;;;;5049175;28;20053;-81
2021/04/22 12:46:13;;;;;;;4.85;1.33;;;19.70;50.10;;;;;;5046821;28;20085;-81
2021/04/22 12:48:46;;;;;;;9.52;1.83;;;20.40;50.30;;;;;;5047010;28;20049;-81
2021/04/22 12:51:16;;;;;;;6.20;1.55;;;21.00;48.20;;;;;;5046159;28;20071;-79
2021/04/22 12:53:45;;;;;;;9.27;1.85;;;21.10;46.10;;;;;;5059227;28;20065;-80
2021/04/22 12:56:16;;;;;;;6.78;1.80;;;21.50;47.90;;;;;;5059419;28;20059;-80
2021/04/22 12:58:50;;;;;;;5.03;1.50;;;21.80;45.60;;;;;;5058315;28;20049;-80